Latest Coastal Weather Observations for Bellambi

IDN60701

Issued at 5:41 am EST Tuesday 1 September 2015 (issued every 10 minutes, with the page automatically refreshed every 10 minutes)

About coastal observations | Map of coastal stations | Coastal observations for NSW | Marine services | Other Formats
Station Details ID: 068228 Name: BELLAMBI AWS Lat: -34.37 Lon: 150.93 Height: 10.0 m
Data from the previous 72 hours. | See also: Recent months at Bellambi
Date/Time
EST
Temp

°C
Wind Pressure Rain
since 9am
mm
Weather Cloud Vis
km
Sea
Height
m
Swell
Dir
 
Speed
knots
Gust
knots
hPa Trend Height
m
Period
s
Dir
01/05:30am 10.0 W 7 11 - - 0.0 - - - - - - -
01/05:00am 10.2 W 8 11 - - 0.0 - - - - - - -
01/04:30am 10.4 W 7 9 - - 0.0 - - - - - - -
01/04:00am 10.7 W 7 10 - - 0.0 - - - - - - -
01/03:30am 11.0 WSW 6 9 - - 0.0 - - - - - - -
01/03:00am 10.9 WSW 7 9 - - 0.0 - - - - - - -
01/02:30am 11.4 W 9 13 - - 0.0 - - - - - - -
01/02:00am 11.2 WSW 9 12 - - 0.0 - - - - - - -
01/01:30am 11.7 WSW 10 15 - - 0.0 - - - - - - -
01/01:00am 11.6 WSW 8 12 - - 0.0 - - - - - - -
01/12:30am 11.4 W 6 8 - - 0.0 - - - - - - -
01/12:00am 11.9 WSW 8 12 - - 0.0 - - - - - - -
 
Date/Time
EST
Temp

°C
Wind Pressure Rain
since 9am
mm
Weather Cloud Vis
km
Sea
Height
m
Swell
Dir
 
Speed
knots
Gust
knots
hPa Trend Height
m
Period
s
Dir
31/11:30pm 11.7 W 7 9 - - 0.0 - - - - - - -
31/11:00pm 11.4 WNW 6 10 - - 0.0 - - - - - - -
31/10:30pm 11.1 NW 6 7 - - 0.0 - - - - - - -
31/10:00pm 11.4 WNW 5 7 - - 0.0 - Partly cloudy - - - - -
31/09:30pm 11.8 WNW 5 6 - - 0.0 - Partly cloudy - - - - -
31/09:00pm 11.9 WSW 6 7 - - 0.0 - - - - - - -
31/08:30pm 12.1 WSW 5 7 - - 0.0 - - - - - - -
31/08:00pm 12.4 WSW 7 9 - - 0.0 - - - - - - -
31/07:30pm 12.5 WSW 7 9 - - 0.0 - - - - - - -
31/07:00pm 12.3 WSW 5 7 - - 0.0 - - - - - - -
31/06:30pm 13.0 WNW 4 5 - - 0.0 - - - - - - -
31/06:00pm 14.0 SW 9 14 - - 0.0 - - - - - - -
31/05:30pm 15.0 S 13 16 - - 0.0 - - - - - - -
31/05:00pm 15.0 S 15 19 - - 0.0 - - - - - - -
31/04:30pm 15.2 S 15 17 - - 0.0 - - - - - - -
31/04:00pm 15.4 S 14 17 - - 0.0 - - - - - - -
31/03:30pm 15.4 S 16 19 - - 0.0 - - - - - - -
31/03:00pm 15.6 S 17 21 - - 0.0 - - - - - - -
31/02:30pm 15.7 S 15 19 - - 0.0 - - - - - - -
31/02:00pm 15.6 SSE 16 19 - - 0.0 - - - - - - -
31/01:30pm 15.6 SSE 15 18 - - 0.0 - - - - - - -
31/01:00pm 15.3 SSE 14 17 - - 0.0 - - - - - - -
31/12:30pm 15.2 SSE 14 17 - - 0.0 - - - - - - -
31/12:00pm 15.8 S 12 15 - - 0.0 - - - - - - -
31/11:30am 15.4 S 13 16 - - 0.0 - - - - - - -
31/11:00am 14.8 S 14 17 - - 0.0 - - - - - - -
31/10:30am 14.4 S 12 14 - - 0.0 - - - - - - -
31/10:00am 14.5 SSW 12 14 - - 0.0 - - - - - - -
31/09:30am 14.0 SSW 12 17 - - 0.0 - - - - - - -
31/09:00am 13.7 SW 11 15 - - 0.0 - - - - - - -
31/08:30am 13.1 SW 9 13 - - 0.0 - - - - - - -
31/08:00am 12.2 SW 8 11 - - 0.0 - - - - - - -
31/07:30am 11.4 SW 7 8 - - 0.0 - - - - - - -
31/07:00am 10.3 WSW 7 9 - - 0.0 - - - - - - -
31/06:30am 9.6 WSW 8 10 - - 0.0 - - - - - - -
31/06:00am 9.3 SW 9 10 - - 0.0 - - - - - - -
31/05:30am 8.4 WSW 5 6 - - 0.0 - - - - - - -
31/05:00am 9.1 WSW 5 6 - - 0.0 - - - - - - -
31/04:30am 9.7 SW 6 8 - - 0.0 - - - - - - -
31/04:00am 9.8 SW 6 9 - - 0.0 - - - - - - -
31/03:30am 9.4 W 5 7 - - 0.0 - - - - - - -
31/03:00am 10.2 W 5 7 - - 0.0 - Mostly clear - - - - -
31/02:30am 10.3 W 5 6 - - 0.0 - - - - - - -
31/02:00am 10.2 WSW 5 7 - - 0.0 - - - - - - -
31/01:30am 11.0 SW 8 10 - - 0.0 - - - - - - -
31/01:00am 11.3 SW 9 11 - - 0.0 - - - - - - -
31/12:30am 11.6 SW 10 12 - - 0.0 - - - - - - -
31/12:00am 11.8 SW 9 11 - - 0.0 - - - - - - -
 
Date/Time
EST
Temp

°C
Wind Pressure Rain
since 9am
mm
Weather Cloud Vis
km
Sea
Height
m
Swell
Dir
 
Speed
knots
Gust
knots
hPa Trend Height
m
Period
s
Dir
30/11:30pm 12.2 SW 8 10 - - 0.0 - - - - - - -
30/11:00pm 12.8 SW 8 12 - - 0.0 - Partly cloudy - - - - -
30/10:30pm 12.7 SW 9 13 - - 0.0 - Partly cloudy - - - - -
30/10:00pm 13.0 SW 9 11 - - 0.0 - Partly cloudy - - - - -
30/09:30pm 12.8 SW 10 13 - - 0.0 - Partly cloudy - - - - -
30/09:00pm 12.9 SW 9 12 - - 0.0 - Cloudy - - - - -
30/08:30pm 12.5 SW 9 11 - - 0.0 - Partly cloudy - - - - -
30/08:00pm 12.8 SW 10 13 - - 0.0 - Partly cloudy - - - - -
30/07:30pm 13.1 SW 10 14 - - 0.0 - Cloudy - - - - -
30/07:00pm 13.5 SW 11 16 - - 0.0 - - - - - - -
30/06:30pm 14.5 SSW 14 19 - - 0.0 - Cloudy - - - - -
30/06:00pm 15.0 S 17 19 - - 0.0 - Mostly cloudy - - - - -
30/05:30pm 14.8 S 15 19 - - 0.0 - - - - - - -
30/05:00pm 14.7 S 15 19 - - 0.0 - Partly cloudy - - - - -
30/04:30pm 14.8 SSE 16 20 - - 0.0 - Partly cloudy - - - - -
30/04:00pm 14.7 S 19 22 - - 0.0 - Cloudy - - - - -
30/03:30pm 15.2 S 19 23 - - 0.0 - Partly cloudy - - - - -
30/03:00pm 15.0 S 20 24 - - 0.0 - Mostly clear - - - - -
30/02:30pm 15.1 S 19 23 - - 0.0 - - - - - - -
30/02:00pm 15.2 S 18 21 - - 0.0 - - - - - - -
30/01:30pm 15.1 S 17 21 - - 0.0 - - - - - - -
30/01:00pm 15.1 SSE 17 21 - - 0.0 - - - - - - -
30/12:30pm 15.1 SSE 13 17 - - 0.0 - Partly cloudy - - - - -
30/12:00pm 15.1 SSE 15 20 - - 0.0 - Mostly clear - - - - -
30/11:30am 15.1 S 13 16 - - 0.0 - - - - - - -
30/11:00am 15.2 S 11 16 - - 0.0 - - - - - - -
30/10:30am 14.8 S 11 13 - - 0.0 - - - - - - -
30/10:00am 14.4 SSW 11 14 - - 0.0 - - - - - - -
30/09:30am 14.5 SSW 10 14 - - 0.0 - - - - - - -
30/09:00am 13.9 SW 9 12 - - 0.0 - - - - - - -
30/08:30am 13.4 SW 9 11 - - 0.0 - - - - - - -
30/08:00am 12.4 SW 7 10 - - 0.0 - - - - - - -
30/07:30am 11.0 WSW 5 7 - - 0.0 - - - - - - -
30/07:00am 9.8 WSW 7 8 - - 0.0 - - - - - - -
30/06:30am 9.3 SW 9 11 - - 0.0 - - - - - - -
30/06:00am 8.6 SW 5 7 - - 0.0 - - - - - - -
30/05:30am 8.6 WNW 2 4 - - 0.0 - - - - - - -
30/05:00am 9.0 WSW 5 7 - - 0.0 - - - - - - -
30/04:30am 9.4 W 5 7 - - 0.0 - - - - - - -
30/04:00am 9.8 W 5 7 - - 0.0 - - - - - - -
30/03:30am 9.8 WSW 7 9 - - 0.0 - - - - - - -
30/03:00am 9.4 W 6 7 - - 0.0 - - - - - - -
30/02:30am 9.2 W 3 6 - - 0.0 - - - - - - -
30/02:00am 9.3 CALM 0 2 - - 0.0 - - - - - - -
30/01:30am 9.0 WNW 4 5 - - 0.0 - - - - - - -
30/01:00am 9.2 WNW 5 6 - - 0.0 - - - - - - -
30/12:30am 9.9 WNW 6 9 - - 0.0 - - - - - - -
30/12:00am 10.1 WNW 9 12 - - 0.0 - - - - - - -
 
Date/Time
EST
Temp

°C
Wind Pressure Rain
since 9am
mm
Weather Cloud Vis
km
Sea
Height
m
Swell
Dir
 
Speed
knots
Gust
knots
hPa Trend Height
m
Period
s
Dir
29/11:30pm 10.5 WNW 8 12 - - 0.0 - - - - - - -
29/11:00pm 10.8 W 6 9 - - 0.0 - - - - - - -
29/10:30pm 10.8 W 7 9 - - 0.0 - - - - - - -
29/10:00pm 11.1 W 6 9 - - 0.0 - - - - - - -
29/09:30pm 11.3 W 5 9 - - 0.0 - - - - - - -
29/09:00pm 11.7 WSW 7 11 - - 0.0 - - - - - - -
29/08:30pm 12.2 WSW 8 11 - - 0.0 - - - - - - -
29/08:00pm 12.5 WSW 7 9 - - 0.0 - - - - - - -
29/07:30pm 12.3 SW 5 7 - - 0.0 - - - - - - -
29/07:00pm 12.9 WSW 3 5 - - 0.0 - - - - - - -
29/06:30pm 13.2 WSW 6 7 - - 0.0 - - - - - - -
29/06:00pm 13.8 WSW 5 8 - - 0.0 - - - - - - -
29/05:30pm 15.0 W 5 7 - - 0.0 - - - - - - -
29/05:00pm 16.6 WSW 7 12 - - 0.0 - - - - - - -
29/04:30pm 17.6 W 7 11 - - 0.0 - - - - - - -
29/04:00pm 17.9 W 6 9 - - 0.0 - - - - - - -
29/03:30pm 16.5 NE 6 8 - - 0.0 - Partly cloudy - - - - -
29/03:00pm 16.4 ENE 9 13 - - 0.0 - Mostly clear - - - - -
29/02:30pm 15.6 ENE 7 10 - - 0.0 - Partly cloudy - - - - -
29/02:00pm 16.8 NNW 4 7 - - 0.0 - Partly cloudy - - - - -
29/01:30pm 17.0 NE 8 11 - - 0.0 - Partly cloudy - - - - -
29/01:00pm 16.5 ENE 10 14 - - 0.0 - Partly cloudy - - - - -
29/12:30pm 16.3 NNE 7 10 - - 0.0 - Partly cloudy - - - - -
29/12:00pm 17.2 W 10 14 - - 0.0 - Mostly clear - - - - -
29/11:30am 17.1 WNW 8 12 - - 0.0 - Partly cloudy - - - - -
29/11:00am 16.4 W 7 13 - - 0.0 - Partly cloudy - - - - -
29/10:30am 16.1 WNW 5 12 - - 0.0 - - - - - - -
29/10:00am 15.6 WNW 7 13 - - 0.0 - - - - - - -
29/09:30am 14.9 NE 4 6 - - 0.0 - - - - - - -
29/09:00am 13.9 SSE 5 7 - - 0.4 - - - - - - -
29/08:30am 13.6 SSE 5 7 - - 0.4 - - - - - - -
29/08:00am 12.4 W 3 6 - - 0.4 - - - - - - -
29/07:30am 11.0 NNW 3 6 - - 0.4 - - - - - - -
29/07:00am 10.7 WNW 4 6 - - 0.4 - - - - - - -
29/06:30am 10.6 W 3 6 - - 0.4 - - - - - - -
29/06:00am 10.2 WSW 3 5 - - 0.4 - - - - - - -

Other Formats:

Comma delimited format used in spreadsheet applications
http://www.bom.gov.au/fwo/IDN60701/IDN60701.94749.axf

JavaScript Object Notation format (JSON) in row-major order
http://www.bom.gov.au/fwo/IDN60701/IDN60701.94749.json